createdAt,value
2023-01-17T00:02:28.685Z,11.90
2023-01-17T00:05:15.143Z,10.50
2023-01-17T00:08:01.152Z,12.70
2023-01-17T00:10:29.434Z,11.27
2023-01-17T00:13:03.486Z,9.93
2023-01-17T00:15:32.596Z,7.80
2023-01-17T00:18:00.658Z,9.40
2023-01-17T00:20:50.813Z,9.60
2023-01-17T00:23:41.044Z,15.27
2023-01-17T00:26:19.776Z,13.43
2023-01-17T00:28:49.323Z,9.30
2023-01-17T00:31:18.747Z,7.80
2023-01-17T00:33:46.469Z,6.87
2023-01-17T00:36:14.491Z,6.20
2023-01-17T00:38:43.072Z,5.10
2023-01-17T00:41:15.016Z,5.70
2023-01-17T00:44:01.035Z,5.60
2023-01-17T00:46:47.386Z,8.70
2023-01-17T00:49:40.249Z,5.97
2023-01-17T00:52:26.519Z,8.30
2023-01-17T00:55:12.477Z,6.53
2023-01-17T00:57:58.915Z,7.57
2023-01-17T01:00:45.451Z,4.47
2023-01-17T01:03:32.502Z,3.83
2023-01-17T01:06:23.540Z,4.80
2023-01-17T01:09:10.835Z,4.33
2023-01-17T01:11:57.334Z,4.63
2023-01-17T01:14:44.614Z,5.30
2023-01-17T01:17:30.779Z,5.10
2023-01-17T01:20:17.142Z,6.63
2023-01-17T01:23:13.724Z,4.40
2023-01-17T01:26:14.555Z,4.97
2023-01-17T01:29:03.423Z,3.70
2023-01-17T01:31:49.988Z,4.77
2023-01-17T01:34:18.006Z,4.87
2023-01-17T01:36:45.672Z,3.23
2023-01-17T01:39:13.396Z,5.67
2023-01-17T01:41:41.133Z,7.43
2023-01-17T01:44:53.440Z,4.80
2023-01-17T01:47:40.938Z,8.40
2023-01-17T01:50:13.686Z,9.30
2023-01-17T01:52:52.402Z,5.63
2023-01-17T01:55:38.474Z,5.43
2023-01-17T01:58:27.049Z,4.53
2023-01-17T02:00:54.837Z,3.20
2023-01-17T02:03:31.498Z,2.77
2023-01-17T02:06:28.953Z,3.13
2023-01-17T02:09:06.538Z,3.33
2023-01-17T02:11:39.084Z,3.97
2023-01-17T02:14:20.191Z,5.10
2023-01-17T02:17:46.596Z,4.50
2023-01-17T02:21:19.157Z,4.97
2023-01-17T02:24:59.871Z,5.40
2023-01-17T02:27:56.546Z,6.17
2023-01-17T02:30:47.925Z,8.37
2023-01-17T02:33:50.568Z,4.60
2023-01-17T02:36:38.074Z,7.77
2023-01-17T02:39:24.856Z,6.50
2023-01-17T02:42:06.377Z,4.57
2023-01-17T02:44:44.171Z,3.77
2023-01-17T02:47:32.823Z,3.53
2023-01-17T02:50:30.988Z,2.63
2023-01-17T02:53:42.435Z,2.80
2023-01-17T02:56:48.484Z,4.83
2023-01-17T03:00:03.693Z,5.80
2023-01-17T03:02:51.794Z,4.60
2023-01-17T03:05:47.578Z,2.70
2023-01-17T03:08:17.731Z,4.40
2023-01-17T03:10:46.356Z,4.97
2023-01-17T03:13:14.231Z,5.57
2023-01-17T03:15:42.646Z,5.87
2023-01-17T03:18:17.327Z,7.23
2023-01-17T03:20:45.103Z,5.40
2023-01-17T03:23:12.727Z,6.23
2023-01-17T03:25:40.426Z,6.57
2023-01-17T03:28:08.027Z,7.90
2023-01-17T03:30:35.731Z,5.33
2023-01-17T03:33:03.688Z,5.50
2023-01-17T03:35:32.845Z,4.90
2023-01-17T03:38:00.911Z,5.80
2023-01-17T03:40:28.654Z,8.20
2023-01-17T03:42:56.341Z,9.03
2023-01-17T03:45:24.025Z,9.50
2023-01-17T03:47:51.921Z,5.63
2023-01-17T03:50:19.631Z,8.63
2023-01-17T03:52:47.965Z,7.63
2023-01-17T03:55:16.266Z,5.97
2023-01-17T03:57:44.011Z,8.33
2023-01-17T04:00:13.578Z,4.80
2023-01-17T04:02:41.293Z,6.77
2023-01-17T04:05:09.977Z,4.60
2023-01-17T04:07:38.264Z,7.33
2023-01-17T04:10:07.562Z,5.00
2023-01-17T04:12:35.190Z,9.90
2023-01-17T04:15:02.969Z,11.80
2023-01-17T04:17:30.902Z,9.90
2023-01-17T04:19:59.294Z,8.50
2023-01-17T04:22:27.034Z,8.57
2023-01-17T04:24:55.765Z,9.00
2023-01-17T04:27:39.489Z,10.83
2023-01-17T04:30:11.419Z,12.07
2023-01-17T04:32:39.143Z,9.67
2023-01-17T04:35:09.534Z,10.27
2023-01-17T04:37:38.658Z,11.63
2023-01-17T04:40:08.384Z,14.80
2023-01-17T04:42:36.341Z,15.73
2023-01-17T04:45:06.198Z,14.10
2023-01-17T04:47:37.050Z,17.40
2023-01-17T04:50:06.160Z,21.63
2023-01-17T04:52:34.118Z,17.50
2023-01-17T04:55:02.802Z,23.23
2023-01-17T04:57:30.732Z,17.90
2023-01-17T04:59:58.554Z,26.63
2023-01-17T05:02:26.373Z,22.13
2023-01-17T05:04:54.163Z,23.93
2023-01-17T05:07:21.808Z,22.77
2023-01-17T05:09:49.561Z,21.80
2023-01-17T05:12:18.037Z,19.17
2023-01-17T05:14:45.749Z,13.97
2023-01-17T05:17:13.478Z,19.63
2023-01-17T05:19:41.201Z,16.47
2023-01-17T05:22:16.455Z,16.70
2023-01-17T05:24:48.420Z,20.77
2023-01-17T05:27:16.552Z,15.43
2023-01-17T05:29:44.168Z,14.43
2023-01-17T05:32:11.910Z,10.00
2023-01-17T05:34:39.585Z,13.37
2023-01-17T05:37:07.240Z,8.67
2023-01-17T05:39:34.885Z,11.40
2023-01-17T05:42:02.556Z,7.00
2023-01-17T05:44:30.223Z,9.30
2023-01-17T05:46:58.216Z,11.00
2023-01-17T05:49:26.270Z,13.13
2023-01-17T05:51:54.999Z,8.37
2023-01-17T05:54:22.803Z,10.43
2023-01-17T05:56:50.532Z,8.93
2023-01-17T05:59:25.604Z,6.90
2023-01-17T06:02:00.594Z,11.10
2023-01-17T06:04:28.313Z,10.73
2023-01-17T06:06:55.998Z,8.37
2023-01-17T06:09:23.790Z,9.83
2023-01-17T06:11:52.059Z,11.93
2023-01-17T06:14:19.635Z,14.30
2023-01-17T06:16:47.945Z,14.47
2023-01-17T06:19:15.670Z,13.20
2023-01-17T06:21:43.300Z,15.13
2023-01-17T06:24:10.962Z,16.57
2023-01-17T06:26:38.595Z,18.47
2023-01-17T06:29:06.266Z,24.73
2023-01-17T06:31:33.890Z,21.17
2023-01-17T06:34:05.631Z,23.07
2023-01-17T06:36:36.004Z,20.17
2023-01-17T06:39:10.979Z,23.13
2023-01-17T06:41:39.939Z,27.87
2023-01-17T06:44:09.676Z,30.07
2023-01-17T06:46:48.931Z,28.20
2023-01-17T06:49:29.598Z,26.47
2023-01-17T06:51:59.919Z,26.00
2023-01-17T06:54:27.537Z,29.83
2023-01-17T06:56:55.235Z,36.30
2023-01-17T06:59:22.905Z,32.93
2023-01-17T07:01:50.732Z,37.33
2023-01-17T07:04:18.381Z,33.60
2023-01-17T07:06:46.148Z,31.57
2023-01-17T07:09:13.909Z,37.60
2023-01-17T07:11:41.601Z,31.43
2023-01-17T07:14:14.675Z,31.47
2023-01-17T07:16:46.216Z,38.83
2023-01-17T07:19:14.094Z,36.23
2023-01-17T07:21:41.706Z,32.17
2023-01-17T07:24:09.891Z,34.90
2023-01-17T07:26:38.131Z,39.13
2023-01-17T07:29:06.374Z,33.47
2023-01-17T07:31:36.781Z,28.67
2023-01-17T07:34:04.634Z,36.20
2023-01-17T07:36:32.599Z,43.27
2023-01-17T07:39:00.361Z,40.00
2023-01-17T07:41:28.123Z,39.00
2023-01-17T07:43:56.473Z,39.00
2023-01-17T07:46:24.247Z,38.90
2023-01-17T07:48:51.871Z,37.40
2023-01-17T07:51:19.605Z,38.13
2023-01-17T07:53:47.324Z,37.90
2023-01-17T07:56:14.971Z,42.30
2023-01-17T07:58:43.060Z,49.60
2023-01-17T08:01:15.314Z,44.13
2023-01-17T08:03:43.649Z,45.90
2023-01-17T08:06:25.478Z,44.90
2023-01-17T08:08:59.140Z,38.67
2023-01-17T08:11:27.191Z,45.07
2023-01-17T08:13:59.524Z,44.50
2023-01-17T08:16:30.554Z,42.30
2023-01-17T08:18:58.372Z,46.83
2023-01-17T08:21:26.132Z,42.50
2023-01-17T08:23:53.884Z,43.27
2023-01-17T08:26:23.387Z,47.20
2023-01-17T08:29:01.172Z,41.47
2023-01-17T08:31:35.113Z,44.50
2023-01-17T08:34:02.986Z,42.90
2023-01-17T08:36:35.990Z,42.70
2023-01-17T08:39:21.616Z,48.30
2023-01-17T08:41:51.773Z,42.30
2023-01-17T08:44:20.158Z,47.30
2023-01-17T08:46:47.963Z,40.30
2023-01-17T08:49:16.060Z,51.53
2023-01-17T08:51:43.786Z,48.70
2023-01-17T08:54:13.076Z,41.10
2023-01-17T08:56:42.888Z,44.07
2023-01-17T08:59:12.482Z,45.37
2023-01-17T09:01:46.210Z,39.30
2023-01-17T09:04:15.587Z,46.63
2023-01-17T09:06:47.478Z,35.17
2023-01-17T09:09:17.912Z,37.93
2023-01-17T09:11:45.692Z,38.93
2023-01-17T09:14:14.485Z,36.80
2023-01-17T09:16:42.620Z,37.90
2023-01-17T09:19:10.593Z,34.73
2023-01-17T09:21:38.265Z,34.43
2023-01-17T09:24:06.503Z,32.10
2023-01-17T09:26:34.741Z,33.90
2023-01-17T09:29:02.490Z,33.37
2023-01-17T09:31:30.251Z,39.70
2023-01-17T09:33:59.560Z,33.80
2023-01-17T09:36:29.294Z,41.53
2023-01-17T09:39:03.976Z,37.63
2023-01-17T09:42:39.414Z,42.23
2023-01-17T09:45:20.027Z,36.13
2023-01-17T09:47:53.992Z,36.07
2023-01-17T09:50:55.977Z,34.77
2023-01-17T09:53:24.109Z,31.53
2023-01-17T09:56:14.675Z,37.33
2023-01-17T09:59:18.760Z,34.90
2023-01-17T10:02:18.274Z,35.83
2023-01-17T10:05:36.730Z,32.50
2023-01-17T10:08:32.040Z,34.37
2023-01-17T10:11:45.462Z,40.37
2023-01-17T10:15:13.241Z,34.33
2023-01-17T10:18:30.510Z,30.57
2023-01-17T10:21:21.199Z,37.00
2023-01-17T10:24:24.779Z,32.70
2023-01-17T10:26:57.777Z,35.13
2023-01-17T10:29:35.491Z,37.20
2023-01-17T10:32:04.289Z,40.33
2023-01-17T10:34:47.628Z,33.13
2023-01-17T10:37:45.509Z,28.50
2023-01-17T10:40:50.326Z,35.13
2023-01-17T10:44:10.500Z,36.40
2023-01-17T10:47:10.629Z,41.97
2023-01-17T10:49:54.555Z,32.70
2023-01-17T10:52:53.418Z,34.37
2023-01-17T10:55:53.543Z,28.97
2023-01-17T10:58:21.702Z,29.00
2023-01-17T11:01:17.501Z,29.17
2023-01-17T11:03:51.918Z,31.97
2023-01-17T11:06:27.476Z,23.27
2023-01-17T11:09:02.179Z,30.63
2023-01-17T11:11:37.572Z,32.20
2023-01-17T11:14:26.383Z,28.70
2023-01-17T11:17:14.124Z,29.70
2023-01-17T11:19:53.494Z,25.10
2023-01-17T11:22:22.884Z,22.50
2023-01-17T11:24:56.351Z,24.20
2023-01-17T11:27:37.708Z,26.77
2023-01-17T11:30:21.119Z,25.50
2023-01-17T11:33:08.914Z,27.20
2023-01-17T11:35:45.503Z,32.07
2023-01-17T11:38:23.992Z,26.13
2023-01-17T11:41:13.501Z,28.90
2023-01-17T11:44:25.852Z,24.20
2023-01-17T11:47:19.769Z,28.13
2023-01-17T11:49:50.217Z,25.23
2023-01-17T11:52:39.205Z,24.57
2023-01-17T11:55:07.522Z,22.47
2023-01-17T11:57:37.081Z,24.67
2023-01-17T12:00:46.074Z,28.43
2023-01-17T12:04:25.240Z,19.60
2023-01-17T12:07:35.207Z,23.00
2023-01-17T12:10:39.207Z,27.93
2023-01-17T12:14:04.109Z,20.57
2023-01-17T12:17:34.979Z,18.90
2023-01-17T12:20:16.700Z,18.40
2023-01-17T12:23:34.559Z,24.87
2023-01-17T12:26:40.752Z,19.40
2023-01-17T12:30:22.679Z,23.10
2023-01-17T12:33:34.800Z,26.83
2023-01-17T12:36:50.377Z,25.07
2023-01-17T12:39:38.350Z,21.70
2023-01-17T12:42:18.746Z,22.10
2023-01-17T12:45:23.780Z,16.30
2023-01-17T12:48:11.597Z,23.70
2023-01-17T12:51:10.756Z,31.27
2023-01-17T12:54:24.282Z,25.63
2023-01-17T12:57:18.911Z,22.37
2023-01-17T13:00:23.173Z,22.03
2023-01-17T13:03:32.742Z,19.53
2023-01-17T13:06:06.536Z,20.80
2023-01-17T13:08:49.769Z,19.57
2023-01-17T13:11:51.980Z,22.53
2023-01-17T13:14:19.874Z,21.47
2023-01-17T13:17:45.169Z,15.30
2023-01-17T13:21:19.310Z,23.53
2023-01-17T13:24:51.899Z,16.33
2023-01-17T13:28:23.195Z,18.00
2023-01-17T13:32:22.153Z,19.10
2023-01-17T13:35:40.707Z,23.40
2023-01-17T13:38:42.619Z,14.33
2023-01-17T13:41:45.175Z,20.93
2023-01-17T13:44:21.705Z,27.67
2023-01-17T13:47:10.704Z,21.23
2023-01-17T13:49:56.308Z,23.07
2023-01-17T13:52:33.287Z,21.70
2023-01-17T13:55:07.368Z,24.33
2023-01-17T13:57:43.789Z,20.10
2023-01-17T14:00:21.500Z,17.73
2023-01-17T14:02:52.919Z,21.97
2023-01-17T14:05:56.818Z,21.33
2023-01-17T14:08:27.567Z,22.27
2023-01-17T14:11:09.807Z,20.40
2023-01-17T14:13:41.834Z,20.87
2023-01-17T14:16:29.712Z,20.00
2023-01-17T14:18:57.666Z,19.33
2023-01-17T14:21:32.405Z,20.03
2023-01-17T14:24:20.139Z,26.23
2023-01-17T14:27:24.369Z,21.50
2023-01-17T14:30:07.553Z,19.33
2023-01-17T14:32:39.551Z,18.80
2023-01-17T14:35:23.581Z,20.40
2023-01-17T14:37:59.361Z,18.53
2023-01-17T14:40:31.905Z,27.80
2023-01-17T14:43:18.988Z,17.80
2023-01-17T14:45:48.183Z,16.10
2023-01-17T14:48:23.693Z,17.10
2023-01-17T14:51:00.134Z,15.40
2023-01-17T14:53:34.002Z,17.30
2023-01-17T14:56:15.450Z,21.53
2023-01-17T14:58:46.531Z,16.37
2023-01-17T15:01:20.486Z,17.60
2023-01-17T15:03:57.242Z,14.17
2023-01-17T15:06:42.187Z,16.70
2023-01-17T15:09:35.769Z,14.30
2023-01-17T15:12:08.740Z,15.70
2023-01-17T15:14:45.785Z,16.87
2023-01-17T15:17:27.476Z,17.53
2023-01-17T15:20:18.197Z,15.77
2023-01-17T15:22:46.939Z,11.30
2023-01-17T15:25:16.316Z,12.07
2023-01-17T15:27:44.304Z,14.20
2023-01-17T15:30:17.140Z,20.77
2023-01-17T15:32:49.434Z,14.17
2023-01-17T15:35:21.258Z,12.70
2023-01-17T15:37:58.532Z,10.47
2023-01-17T15:40:28.293Z,17.53
2023-01-17T15:43:05.554Z,13.27
2023-01-17T15:45:37.324Z,12.43
2023-01-17T15:48:41.507Z,19.93
2023-01-17T15:51:13.623Z,14.17
2023-01-17T15:53:44.169Z,17.87
2023-01-17T15:56:33.893Z,17.07
2023-01-17T15:59:40.423Z,17.70
2023-01-17T16:02:43.782Z,21.23
2023-01-17T16:05:31.195Z,14.90
2023-01-17T16:08:38.599Z,13.70
2023-01-17T16:11:11.861Z,12.90
2023-01-17T16:13:42.491Z,19.30
2023-01-17T16:16:26.633Z,18.67
2023-01-17T16:19:03.241Z,15.93
2023-01-17T16:21:32.537Z,18.50
2023-01-17T16:24:03.260Z,17.20
2023-01-17T16:26:31.147Z,16.50
2023-01-17T16:28:58.963Z,16.77
2023-01-17T16:31:26.916Z,18.10
2023-01-17T16:33:54.714Z,19.23
2023-01-17T16:36:23.129Z,14.67
2023-01-17T16:38:53.251Z,17.20
2023-01-17T16:41:22.256Z,16.57
2023-01-17T16:44:10.490Z,14.23
2023-01-17T16:46:38.797Z,16.53
2023-01-17T16:49:11.256Z,18.37
2023-01-17T16:51:39.408Z,22.00
2023-01-17T16:54:07.246Z,18.90
2023-01-17T16:56:35.476Z,17.67
2023-01-17T16:59:03.590Z,18.43
2023-01-17T17:01:32.684Z,17.90
2023-01-17T17:04:00.364Z,24.53
2023-01-17T17:06:28.081Z,22.20
2023-01-17T17:08:55.805Z,24.13
2023-01-17T17:11:24.788Z,20.83
2023-01-17T17:13:55.905Z,19.03
2023-01-17T17:16:30.383Z,18.80
2023-01-17T17:19:06.927Z,18.33
2023-01-17T17:21:40.483Z,16.30
2023-01-17T17:24:11.492Z,18.87
2023-01-17T17:26:41.327Z,17.57
2023-01-17T17:29:14.344Z,17.97
2023-01-17T17:31:43.846Z,18.20
2023-01-17T17:34:16.093Z,16.60
2023-01-17T17:36:44.672Z,28.37
2023-01-17T17:39:15.862Z,21.93
2023-01-17T17:41:46.057Z,20.97
2023-01-17T17:44:13.856Z,22.00
2023-01-17T17:46:43.068Z,20.77
2023-01-17T17:49:11.157Z,22.40
2023-01-17T17:51:41.442Z,22.97
2023-01-17T17:54:14.741Z,23.60
2023-01-17T17:56:47.577Z,18.00
2023-01-17T17:59:20.297Z,22.33
2023-01-17T18:01:49.195Z,26.07
2023-01-17T18:04:18.114Z,26.83
2023-01-17T18:06:46.484Z,23.80
2023-01-17T18:09:16.449Z,25.27
2023-01-17T18:11:45.261Z,30.37
2023-01-17T18:14:16.542Z,24.60
2023-01-17T18:16:45.402Z,27.00
2023-01-17T18:19:24.858Z,27.20
2023-01-17T18:21:53.901Z,22.60
2023-01-17T18:24:25.475Z,27.60
2023-01-17T18:26:58.448Z,27.83
2023-01-17T18:29:28.769Z,22.57
2023-01-17T18:31:56.994Z,22.43
2023-01-17T18:34:29.575Z,25.53
2023-01-17T18:36:58.591Z,28.93
2023-01-17T18:39:30.167Z,30.47
2023-01-17T18:41:59.419Z,23.77
2023-01-17T18:44:28.172Z,29.77
2023-01-17T18:47:04.603Z,24.43
2023-01-17T18:49:34.140Z,30.53
2023-01-17T18:52:02.554Z,28.90
2023-01-17T18:54:30.328Z,30.53
2023-01-17T18:56:58.623Z,30.13
2023-01-17T18:59:26.391Z,28.90
2023-01-17T19:01:58.932Z,29.57
2023-01-17T19:04:28.504Z,30.60
2023-01-17T19:06:56.170Z,33.07
2023-01-17T19:09:24.090Z,28.30
2023-01-17T19:11:51.818Z,38.10
2023-01-17T19:14:19.573Z,33.03
2023-01-17T19:16:47.335Z,34.87
2023-01-17T19:19:16.622Z,35.67
2023-01-17T19:21:44.839Z,38.53
2023-01-17T19:24:14.414Z,36.67
2023-01-17T19:26:43.403Z,32.83
2023-01-17T19:29:12.339Z,33.43
2023-01-17T19:31:43.419Z,33.93
2023-01-17T19:34:18.911Z,30.10
2023-01-17T19:36:47.364Z,27.27
2023-01-17T19:39:15.070Z,27.23
2023-01-17T19:41:46.023Z,27.73
2023-01-17T19:44:15.234Z,27.57
2023-01-17T19:46:44.243Z,30.47
2023-01-17T19:49:12.292Z,26.83
2023-01-17T19:51:40.399Z,27.07
2023-01-17T19:54:08.632Z,24.10
2023-01-17T19:56:36.843Z,26.63
2023-01-17T19:59:04.745Z,28.40
2023-01-17T20:01:35.224Z,27.47
2023-01-17T20:04:05.030Z,30.77
2023-01-17T20:06:36.919Z,28.70
2023-01-17T20:09:07.344Z,26.70
2023-01-17T20:11:36.561Z,31.50
2023-01-17T20:14:05.842Z,30.93
2023-01-17T20:16:37.871Z,33.03
2023-01-17T20:19:06.329Z,25.37
2023-01-17T20:21:34.575Z,30.23
2023-01-17T20:24:04.708Z,33.87
2023-01-17T20:26:36.345Z,32.87
2023-01-17T20:29:15.160Z,26.57
2023-01-17T20:31:52.492Z,38.27
2023-01-17T20:34:21.536Z,33.73
2023-01-17T20:36:49.204Z,35.17
2023-01-17T20:39:19.846Z,35.23
2023-01-17T20:41:49.425Z,29.83
2023-01-17T20:44:19.650Z,30.77
2023-01-17T20:46:48.407Z,38.77
2023-01-17T20:49:20.254Z,32.40
2023-01-17T20:51:51.955Z,31.53
2023-01-17T20:54:23.853Z,27.30
2023-01-17T20:56:58.731Z,48.13
2023-01-17T20:59:26.796Z,43.70
2023-01-17T21:01:54.738Z,42.13
2023-01-17T21:04:26.047Z,36.07
2023-01-17T21:06:54.987Z,31.50
2023-01-17T21:09:22.859Z,35.43
2023-01-17T21:11:51.985Z,36.53
2023-01-17T21:14:21.916Z,35.27
2023-01-17T21:16:50.459Z,65.60
2023-01-17T21:19:23.915Z,50.60
2023-01-17T21:21:51.594Z,58.33
2023-01-17T21:24:20.353Z,56.17
2023-01-17T21:26:51.484Z,60.93
2023-01-17T21:29:19.544Z,57.93
2023-01-17T21:31:47.383Z,68.77
2023-01-17T21:34:15.349Z,70.83
2023-01-17T21:36:44.136Z,65.57
2023-01-17T21:39:20.019Z,60.37
2023-01-17T21:41:50.860Z,58.90
2023-01-17T21:44:24.272Z,65.07
2023-01-17T21:46:55.077Z,63.73
2023-01-17T21:49:29.651Z,57.53
2023-01-17T21:51:58.418Z,58.97
2023-01-17T21:54:49.066Z,63.63
2023-01-17T21:57:41.762Z,60.83
2023-01-17T22:00:15.643Z,61.63
2023-01-17T22:02:48.882Z,63.30
2023-01-17T22:05:18.899Z,62.77
2023-01-17T22:08:06.114Z,73.10
2023-01-17T22:10:44.701Z,66.00
2023-01-17T22:13:18.681Z,67.37
2023-01-17T22:15:59.066Z,72.73
2023-01-17T22:18:38.401Z,68.77
2023-01-17T22:21:24.438Z,69.83
2023-01-17T22:23:59.326Z,82.57
2023-01-17T22:26:31.648Z,78.23
2023-01-17T22:29:04.479Z,70.37
2023-01-17T22:31:32.379Z,90.83
2023-01-17T22:34:05.908Z,86.60
2023-01-17T22:36:35.272Z,85.73
2023-01-17T22:39:03.195Z,87.87
2023-01-17T22:41:33.060Z,77.47
2023-01-17T22:44:02.603Z,82.47
2023-01-17T22:46:37.254Z,74.97
2023-01-17T22:49:08.464Z,83.77
2023-01-17T22:51:36.570Z,81.67
2023-01-17T22:54:04.409Z,70.43
2023-01-17T22:56:34.336Z,73.30
2023-01-17T22:59:02.823Z,65.50
2023-01-17T23:01:33.050Z,70.47
2023-01-17T23:04:05.740Z,59.47
2023-01-17T23:06:40.836Z,60.07
2023-01-17T23:09:17.327Z,57.50
2023-01-17T23:11:55.362Z,60.20
2023-01-17T23:14:29.936Z,78.20
2023-01-17T23:17:22.798Z,67.97
2023-01-17T23:19:54.823Z,68.53
2023-01-17T23:22:27.444Z,66.27
2023-01-17T23:25:01.921Z,69.87
2023-01-17T23:28:05.783Z,57.40
2023-01-17T23:30:42.178Z,54.90
2023-01-17T23:33:15.833Z,52.90
2023-01-17T23:35:46.630Z,52.93
2023-01-17T23:38:33.738Z,53.53
2023-01-17T23:41:28.321Z,57.33
2023-01-17T23:43:59.048Z,56.03
2023-01-17T23:46:27.665Z,55.97
2023-01-17T23:48:55.489Z,64.23
2023-01-17T23:51:23.573Z,52.37
2023-01-17T23:53:57.531Z,53.57
2023-01-17T23:56:25.762Z,51.70
2023-01-17T23:58:53.539Z,50.77
